createdAt,value
2023-04-19T00:00:56.046Z,3.19
2023-04-19T00:01:56.064Z,3.13
2023-04-19T00:02:56.247Z,3.15
2023-04-19T00:03:56.273Z,3.10
2023-04-19T00:04:56.116Z,3.22
2023-04-19T00:05:56.023Z,3.22
2023-04-19T00:06:55.997Z,3.13
2023-04-19T00:07:55.973Z,3.02
2023-04-19T00:08:55.984Z,3.04
2023-04-19T00:09:55.953Z,3.16
2023-04-19T00:10:56.017Z,2.98
2023-04-19T00:11:55.953Z,3.01
2023-04-19T00:12:55.915Z,3.05
2023-04-19T00:13:55.913Z,3.02
2023-04-19T00:14:55.912Z,2.90
2023-04-19T00:15:55.891Z,2.98
2023-04-19T00:16:55.913Z,3.02
2023-04-19T00:17:55.905Z,2.97
2023-04-19T00:18:55.854Z,3.01
2023-04-19T00:19:55.858Z,3.15
2023-04-19T00:20:55.833Z,3.08
2023-04-19T00:21:55.832Z,3.10
2023-04-19T00:22:55.810Z,2.99
2023-04-19T00:23:55.833Z,3.05
2023-04-19T00:24:55.792Z,3.02
2023-04-19T00:25:55.790Z,3.08
2023-04-19T00:26:55.806Z,2.99
2023-04-19T00:27:55.758Z,2.98
2023-04-19T00:28:55.751Z,3.04
2023-04-19T00:29:55.768Z,2.97
2023-04-19T00:30:55.756Z,2.94
2023-04-19T00:31:55.731Z,2.98
2023-04-19T00:32:55.746Z,2.99
2023-04-19T00:33:55.694Z,2.98
2023-04-19T00:34:55.697Z,2.99
2023-04-19T00:35:55.684Z,2.97
2023-04-19T00:36:55.662Z,2.90
2023-04-19T00:37:55.667Z,3.02
2023-04-19T00:38:55.636Z,3.12
2023-04-19T00:39:55.632Z,3.02
2023-04-19T00:40:55.650Z,3.05
2023-04-19T00:41:55.652Z,3.12
2023-04-19T00:42:55.665Z,3.10
2023-04-19T00:43:55.591Z,3.16
2023-04-19T00:44:55.573Z,3.16
2023-04-19T00:45:55.573Z,3.05
2023-04-19T00:46:55.552Z,3.26
2023-04-19T00:47:55.600Z,3.12
2023-04-19T00:48:55.545Z,3.19
2023-04-19T00:49:55.517Z,3.17
2023-04-19T00:50:55.510Z,3.17
2023-04-19T00:51:55.496Z,3.20
2023-04-19T00:52:55.493Z,3.31
2023-04-19T00:53:55.504Z,3.17
2023-04-19T00:54:55.465Z,3.13
2023-04-19T00:55:55.451Z,3.19
2023-04-19T00:56:55.445Z,3.16
2023-04-19T00:57:55.431Z,3.19
2023-04-19T00:58:55.444Z,3.15
2023-04-19T00:59:55.440Z,3.07
2023-04-19T01:00:55.403Z,3.28
2023-04-19T01:01:55.566Z,3.15
2023-04-19T01:02:55.491Z,3.23
2023-04-19T01:03:55.435Z,3.23
2023-04-19T01:04:55.391Z,3.17
2023-04-19T01:05:55.359Z,3.20
2023-04-19T01:06:55.354Z,3.07
2023-04-19T01:07:55.324Z,3.34
2023-04-19T01:08:55.314Z,3.22
2023-04-19T01:09:55.313Z,3.26
2023-04-19T01:10:55.301Z,3.23
2023-04-19T01:11:55.296Z,3.17
2023-04-19T01:12:55.270Z,3.26
2023-04-19T01:13:55.264Z,3.28
2023-04-19T01:14:55.287Z,3.16
2023-04-19T01:15:55.288Z,3.22
2023-04-19T01:16:55.234Z,3.26
2023-04-19T01:17:55.286Z,3.22
2023-04-19T01:18:55.214Z,3.08
2023-04-19T01:19:55.204Z,3.12
2023-04-19T01:20:55.185Z,3.19
2023-04-19T01:21:55.185Z,3.31
2023-04-19T01:22:55.164Z,3.10
2023-04-19T01:23:55.163Z,3.07
2023-04-19T01:24:55.149Z,3.01
2023-04-19T01:25:55.145Z,3.15
2023-04-19T01:26:55.128Z,3.15
2023-04-19T01:27:55.117Z,3.19
2023-04-19T01:28:55.099Z,3.10
2023-04-19T01:29:55.098Z,3.13
2023-04-19T01:30:55.143Z,3.17
2023-04-19T01:31:55.074Z,3.26
2023-04-19T01:32:55.118Z,3.25
2023-04-19T01:33:55.054Z,3.31
2023-04-19T01:34:55.041Z,3.25
2023-04-19T01:35:55.037Z,3.28
2023-04-19T01:36:55.015Z,3.30
2023-04-19T01:37:54.998Z,3.20
2023-04-19T01:38:54.992Z,3.33
2023-04-19T01:39:54.988Z,3.41
2023-04-19T01:40:54.977Z,3.45
2023-04-19T01:41:54.976Z,3.30
2023-04-19T01:42:54.949Z,3.41
2023-04-19T01:43:54.937Z,3.42
2023-04-19T01:44:54.939Z,3.52
2023-04-19T01:45:54.916Z,3.49
2023-04-19T01:46:55.089Z,3.50
2023-04-19T01:47:55.027Z,3.44
2023-04-19T01:48:54.885Z,3.56
2023-04-19T01:49:54.878Z,3.59
2023-04-19T01:50:54.872Z,3.53
2023-04-19T01:51:54.856Z,3.49
2023-04-19T01:52:54.854Z,3.45
2023-04-19T01:53:54.906Z,3.56
2023-04-19T01:54:54.823Z,3.56
2023-04-19T01:55:54.828Z,3.62
2023-04-19T01:56:54.798Z,3.68
2023-04-19T01:57:54.886Z,3.53
2023-04-19T01:58:54.781Z,3.56
2023-04-19T01:59:54.778Z,3.50
2023-04-19T02:00:54.770Z,3.63
2023-04-19T02:01:54.839Z,3.74
2023-04-19T02:02:54.876Z,3.63
2023-04-19T02:03:54.907Z,3.72
2023-04-19T02:04:54.751Z,3.64
2023-04-19T02:05:54.698Z,3.74
2023-04-19T02:06:54.691Z,3.64
2023-04-19T02:07:54.674Z,3.89
2023-04-19T02:08:54.666Z,3.72
2023-04-19T02:09:54.681Z,3.81
2023-04-19T02:10:54.674Z,3.81
2023-04-19T02:11:54.632Z,3.89
2023-04-19T02:12:54.625Z,3.98
2023-04-19T02:13:54.625Z,3.80
2023-04-19T02:14:54.604Z,3.88
2023-04-19T02:15:54.667Z,3.88
2023-04-19T02:16:54.646Z,3.88
2023-04-19T02:17:54.574Z,3.95
2023-04-19T02:18:54.656Z,3.88
2023-04-19T02:19:54.597Z,3.96
2023-04-19T02:20:54.540Z,3.90
2023-04-19T02:21:54.539Z,4.00
2023-04-19T02:22:54.545Z,3.86
2023-04-19T02:23:54.501Z,3.92
2023-04-19T02:24:54.506Z,3.93
2023-04-19T02:25:54.493Z,3.95
2023-04-19T02:26:54.487Z,3.96
2023-04-19T02:27:54.466Z,3.81
2023-04-19T02:28:54.472Z,3.99
2023-04-19T02:29:54.469Z,3.96
2023-04-19T02:30:54.441Z,3.96
2023-04-19T02:31:54.438Z,3.93
2023-04-19T02:32:54.443Z,3.95
2023-04-19T02:33:54.443Z,4.04
2023-04-19T02:34:54.417Z,3.93
2023-04-19T02:35:54.389Z,3.98
2023-04-19T02:36:54.382Z,3.92
2023-04-19T02:37:54.352Z,3.82
2023-04-19T02:38:54.349Z,3.72
2023-04-19T02:39:54.347Z,3.70
2023-04-19T02:40:54.336Z,3.64
2023-04-19T02:41:54.339Z,3.71
2023-04-19T02:42:54.303Z,3.63
2023-04-19T02:43:54.294Z,3.78
2023-04-19T02:44:54.283Z,3.68
2023-04-19T02:45:54.297Z,3.67
2023-04-19T02:46:54.281Z,3.70
2023-04-19T02:47:54.303Z,3.59
2023-04-19T02:48:54.242Z,3.64
2023-04-19T02:49:54.221Z,3.59
2023-04-19T02:50:54.236Z,3.64
2023-04-19T02:51:54.209Z,3.59
2023-04-19T02:52:54.231Z,3.54
2023-04-19T02:53:54.187Z,3.57
2023-04-19T02:54:54.173Z,3.56
2023-04-19T02:55:54.164Z,3.59
2023-04-19T02:56:54.160Z,3.49
2023-04-19T02:57:54.150Z,3.50
2023-04-19T02:58:54.185Z,3.37
2023-04-19T02:59:54.126Z,3.33
2023-04-19T03:00:54.145Z,3.35
2023-04-19T03:01:54.108Z,3.50
2023-04-19T03:02:54.231Z,3.49
2023-04-19T03:03:54.113Z,3.46
2023-04-19T03:04:54.082Z,3.46
2023-04-19T03:05:54.052Z,3.53
2023-04-19T03:06:54.081Z,3.59
2023-04-19T03:07:54.032Z,3.59
2023-04-19T03:08:54.032Z,3.71
2023-04-19T03:09:54.006Z,3.59
2023-04-19T03:10:54.019Z,3.63
2023-04-19T03:11:53.984Z,3.84
2023-04-19T03:12:53.980Z,3.71
2023-04-19T03:13:53.962Z,3.75
2023-04-19T03:14:53.971Z,3.78
2023-04-19T03:15:53.960Z,3.71
2023-04-19T03:16:53.958Z,3.78
2023-04-19T03:17:53.930Z,3.80
2023-04-19T03:18:53.952Z,3.89
2023-04-19T03:19:53.901Z,3.90
2023-04-19T03:20:53.887Z,3.82
2023-04-19T03:21:53.873Z,3.90
2023-04-19T03:22:53.941Z,3.88
2023-04-19T03:23:53.852Z,3.92
2023-04-19T03:24:53.861Z,3.90
2023-04-19T03:25:53.828Z,3.80
2023-04-19T03:26:53.833Z,3.86
2023-04-19T03:27:53.806Z,3.89
2023-04-19T03:28:53.843Z,3.81
2023-04-19T03:29:53.783Z,3.78
2023-04-19T03:30:53.793Z,3.80
2023-04-19T03:31:53.768Z,4.06
2023-04-19T03:32:53.801Z,3.92
2023-04-19T03:33:53.748Z,3.95
2023-04-19T03:34:53.751Z,3.95
2023-04-19T03:35:53.716Z,3.99
2023-04-19T03:36:53.715Z,3.80
2023-04-19T03:37:53.705Z,3.90
2023-04-19T03:38:53.718Z,3.82
2023-04-19T03:39:53.685Z,3.84
2023-04-19T03:40:53.681Z,3.84
2023-04-19T03:41:53.663Z,3.92
2023-04-19T03:42:53.661Z,3.86
2023-04-19T03:43:53.634Z,3.88
2023-04-19T03:44:53.622Z,3.92
2023-04-19T03:45:53.641Z,3.90
2023-04-19T03:46:53.616Z,3.93
2023-04-19T03:47:53.640Z,3.98
2023-04-19T03:48:53.581Z,3.90
2023-04-19T03:49:53.566Z,3.89
2023-04-19T03:50:53.564Z,3.88
2023-04-19T03:51:53.547Z,3.88
2023-04-19T03:52:53.544Z,3.92
2023-04-19T03:53:53.534Z,3.92
2023-04-19T03:54:53.532Z,3.89
2023-04-19T03:55:53.508Z,3.86
2023-04-19T03:56:53.513Z,3.88
2023-04-19T03:57:53.477Z,3.86
2023-04-19T03:58:53.503Z,3.64
2023-04-19T03:59:53.456Z,3.63
2023-04-19T04:00:53.454Z,3.71
2023-04-19T04:01:53.443Z,3.56
2023-04-19T04:02:53.653Z,3.68
2023-04-19T04:03:53.689Z,3.54
2023-04-19T04:04:53.612Z,3.50
2023-04-19T04:05:53.389Z,3.60
2023-04-19T04:06:53.393Z,3.52
2023-04-19T04:07:53.374Z,3.81
2023-04-19T04:08:53.375Z,3.71
2023-04-19T04:09:53.364Z,3.74
2023-04-19T04:10:53.366Z,3.86
2023-04-19T04:11:53.335Z,3.81
2023-04-19T04:12:53.317Z,3.72
2023-04-19T04:13:53.308Z,3.71
2023-04-19T04:14:53.294Z,3.74
2023-04-19T04:15:53.350Z,3.77
2023-04-19T04:16:53.328Z,3.64
2023-04-19T04:17:53.309Z,3.81
2023-04-19T04:18:53.265Z,3.80
2023-04-19T04:19:53.241Z,3.78
2023-04-19T04:20:53.252Z,3.80
2023-04-19T04:21:53.215Z,3.89
2023-04-19T04:22:53.226Z,3.90
2023-04-19T04:23:53.205Z,3.78
2023-04-19T04:24:53.214Z,3.82
2023-04-19T04:25:53.171Z,3.72
2023-04-19T04:26:53.191Z,3.46
2023-04-19T04:27:53.163Z,3.52
2023-04-19T04:28:53.164Z,3.54
2023-04-19T04:29:53.139Z,3.46
2023-04-19T04:30:53.142Z,3.52
2023-04-19T04:31:53.147Z,3.53
2023-04-19T04:32:53.171Z,3.34
2023-04-19T04:33:53.131Z,3.33
2023-04-19T04:34:53.171Z,3.45
2023-04-19T04:35:53.078Z,3.35
2023-04-19T04:36:53.092Z,3.49
2023-04-19T04:37:53.067Z,3.42
2023-04-19T04:38:53.065Z,3.37
2023-04-19T04:39:53.054Z,3.39
2023-04-19T04:40:53.074Z,3.50
2023-04-19T04:41:53.021Z,3.44
2023-04-19T04:42:53.103Z,3.44
2023-04-19T04:44:08.262Z,3.45
2023-04-19T04:44:53.992Z,3.49
2023-04-19T04:45:53.003Z,3.42
2023-04-19T04:46:53.002Z,3.52
2023-04-19T04:47:53.048Z,3.46
2023-04-19T04:48:52.950Z,3.42
2023-04-19T04:49:52.965Z,3.45
2023-04-19T04:50:52.935Z,3.54
2023-04-19T04:51:52.953Z,3.49
2023-04-19T04:52:52.947Z,3.52
2023-04-19T04:53:52.895Z,3.52
2023-04-19T04:54:52.890Z,3.67
2023-04-19T04:55:52.885Z,3.49
2023-04-19T04:56:52.904Z,3.60
2023-04-19T04:57:52.873Z,3.46
2023-04-19T04:58:52.888Z,3.37
2023-04-19T04:59:52.841Z,3.45
2023-04-19T05:00:52.842Z,3.44
2023-04-19T05:01:52.824Z,3.34
2023-04-19T05:02:52.915Z,3.26
2023-04-19T05:03:52.845Z,3.20
2023-04-19T05:04:52.793Z,3.33
2023-04-19T05:05:52.784Z,3.37
2023-04-19T05:06:52.790Z,3.35
2023-04-19T05:07:52.825Z,3.39
2023-04-19T05:08:52.734Z,3.42
2023-04-19T05:09:52.737Z,3.54
2023-04-19T05:10:52.736Z,3.54
2023-04-19T05:11:52.712Z,3.53
2023-04-19T05:12:52.694Z,3.54
2023-04-19T05:13:52.687Z,3.45
2023-04-19T05:14:52.689Z,3.44
2023-04-19T05:15:52.767Z,3.46
2023-04-19T05:16:52.715Z,3.45
2023-04-19T05:17:52.839Z,3.37
2023-04-19T05:18:52.638Z,3.44
2023-04-19T05:19:52.624Z,3.50
2023-04-19T05:20:52.615Z,3.39
2023-04-19T05:21:52.651Z,3.33
2023-04-19T05:22:52.588Z,3.34
2023-04-19T05:23:52.605Z,3.33
2023-04-19T05:24:52.562Z,3.33
2023-04-19T05:25:52.558Z,3.45
2023-04-19T05:26:52.536Z,3.57
2023-04-19T05:27:52.551Z,3.75
2023-04-19T05:28:52.545Z,3.98
2023-04-19T05:29:52.527Z,4.54
2023-04-19T05:30:52.687Z,5.02
2023-04-19T05:31:52.610Z,5.41
2023-04-19T05:32:52.522Z,5.55
2023-04-19T05:33:52.483Z,5.69
2023-04-19T05:34:52.453Z,5.88
2023-04-19T05:35:52.444Z,6.02
2023-04-19T05:36:52.540Z,6.06
2023-04-19T05:37:52.432Z,6.25
2023-04-19T05:38:52.411Z,5.51
2023-04-19T05:39:52.434Z,5.26
2023-04-19T05:40:52.390Z,5.29
2023-04-19T05:41:52.528Z,5.40
2023-04-19T05:42:52.366Z,5.70
2023-04-19T05:43:52.371Z,5.96
2023-04-19T05:44:52.350Z,6.19
2023-04-19T05:45:52.412Z,6.39
2023-04-19T05:46:52.414Z,6.55
2023-04-19T05:47:52.336Z,6.40
2023-04-19T05:48:52.302Z,6.61
2023-04-19T05:49:52.304Z,6.78
2023-04-19T05:50:52.295Z,6.63
2023-04-19T05:51:52.292Z,6.64
2023-04-19T05:52:52.259Z,6.83
2023-04-19T05:53:53.345Z,6.58
2023-04-19T05:54:52.237Z,6.39
2023-04-19T05:55:52.330Z,6.39
2023-04-19T05:56:52.214Z,6.38
2023-04-19T05:57:52.222Z,6.48
2023-04-19T05:58:52.193Z,6.75
2023-04-19T05:59:52.195Z,6.91
2023-04-19T06:00:52.174Z,6.75
2023-04-19T06:01:52.252Z,6.71
2023-04-19T06:02:52.323Z,6.89
2023-04-19T06:03:52.382Z,7.11
2023-04-19T06:04:52.416Z,7.44
2023-04-19T06:05:52.152Z,7.42
2023-04-19T06:06:52.108Z,7.15
2023-04-19T06:07:55.621Z,7.15
2023-04-19T06:08:54.884Z,7.19
2023-04-19T06:09:52.118Z,7.09
2023-04-19T06:10:55.859Z,7.01
2023-04-19T06:11:53.085Z,6.97
2023-04-19T06:12:52.053Z,6.87
2023-04-19T06:13:52.033Z,7.11
2023-04-19T06:14:52.039Z,7.00
2023-04-19T06:15:52.070Z,6.81
2023-04-19T06:16:52.018Z,6.83
2023-04-19T06:17:52.039Z,6.60
2023-04-19T06:18:52.016Z,6.71
2023-04-19T06:19:51.972Z,7.11
2023-04-19T06:20:51.953Z,7.15
2023-04-19T06:21:51.967Z,7.07
2023-04-19T06:22:51.942Z,7.14
2023-04-19T06:23:51.937Z,7.41
2023-04-19T06:24:51.918Z,7.45
2023-04-19T06:25:51.915Z,7.52
2023-04-19T06:26:51.890Z,7.50
2023-04-19T06:27:51.893Z,7.52
2023-04-19T06:28:51.869Z,7.67
2023-04-19T06:29:51.870Z,7.99
2023-04-19T06:30:51.847Z,7.95
2023-04-19T06:31:51.917Z,7.86
2023-04-19T06:32:51.856Z,7.76
2023-04-19T06:33:51.835Z,7.85
2023-04-19T06:34:51.987Z,7.99
2023-04-19T06:35:51.806Z,7.99
2023-04-19T06:36:51.783Z,7.77
2023-04-19T06:37:52.183Z,7.62
2023-04-19T06:38:51.760Z,7.71
2023-04-19T06:39:51.779Z,7.82
2023-04-19T06:40:51.741Z,7.60
2023-04-19T06:41:51.730Z,7.44
2023-04-19T06:42:51.722Z,7.54
2023-04-19T06:43:51.717Z,7.73
2023-04-19T06:44:51.715Z,7.42
2023-04-19T06:45:51.971Z,7.47
2023-04-19T06:46:51.703Z,7.67
2023-04-19T06:47:51.770Z,7.73
2023-04-19T06:48:51.668Z,7.71
2023-04-19T06:49:51.644Z,7.82
2023-04-19T06:50:51.771Z,7.96
2023-04-19T06:51:51.644Z,8.20
2023-04-19T06:52:51.611Z,8.03
2023-04-19T06:53:51.606Z,7.99
2023-04-19T06:54:51.588Z,7.92
2023-04-19T06:55:51.579Z,7.82
2023-04-19T06:56:51.583Z,7.62
2023-04-19T06:57:51.567Z,7.96
2023-04-19T06:58:51.547Z,7.94
2023-04-19T06:59:51.535Z,7.92
2023-04-19T07:00:51.520Z,7.88
2023-04-19T07:01:51.717Z,8.09
2023-04-19T07:02:51.572Z,7.89
2023-04-19T07:03:51.618Z,7.85
2023-04-19T07:04:51.565Z,8.31
2023-04-19T07:05:51.473Z,8.31
2023-04-19T07:06:51.485Z,7.88
2023-04-19T07:07:51.457Z,7.95
2023-04-19T07:08:51.449Z,8.36
2023-04-19T07:09:51.436Z,8.25
2023-04-19T07:10:51.772Z,7.95
2023-04-19T07:11:51.407Z,7.76
2023-04-19T07:12:51.390Z,7.99
2023-04-19T07:13:51.407Z,8.13
2023-04-19T07:14:51.390Z,8.00
2023-04-19T07:15:51.422Z,8.36
2023-04-19T07:16:52.326Z,8.50
2023-04-19T07:17:51.374Z,8.52
2023-04-19T07:18:51.322Z,8.57
2023-04-19T07:19:51.328Z,8.78
2023-04-19T07:20:51.401Z,8.80
2023-04-19T07:21:51.312Z,8.65
2023-04-19T07:22:51.590Z,8.61
2023-04-19T07:23:51.270Z,8.63
2023-04-19T07:24:51.266Z,8.54
2023-04-19T07:25:51.258Z,8.42
2023-04-19T07:26:51.245Z,8.22
2023-04-19T07:27:52.269Z,8.29
2023-04-19T07:28:51.207Z,8.36
2023-04-19T07:29:51.201Z,8.55
2023-04-19T07:30:51.204Z,8.43
2023-04-19T07:31:51.332Z,8.58
2023-04-19T07:32:51.288Z,8.80
2023-04-19T07:33:51.161Z,8.64
2023-04-19T07:34:51.148Z,8.46
2023-04-19T07:35:51.228Z,8.47
2023-04-19T07:36:51.139Z,8.45
2023-04-19T07:37:51.113Z,8.63
2023-04-19T07:38:51.163Z,8.68
2023-04-19T07:39:51.109Z,8.63
2023-04-19T07:40:51.090Z,8.85
2023-04-19T07:41:51.085Z,8.64
2023-04-19T07:42:51.087Z,8.73
2023-04-19T07:43:51.049Z,8.73
2023-04-19T07:44:51.068Z,9.19
2023-04-19T07:45:51.029Z,9.45
2023-04-19T07:46:51.142Z,9.68
2023-04-19T07:47:51.126Z,9.68
2023-04-19T07:48:50.988Z,9.70
2023-04-19T07:49:50.991Z,9.89
2023-04-19T07:50:50.987Z,9.68
2023-04-19T07:51:50.962Z,9.59
2023-04-19T07:52:50.957Z,9.58
2023-04-19T07:53:50.954Z,9.55
2023-04-19T07:54:50.964Z,9.77
2023-04-19T07:55:50.916Z,9.70
2023-04-19T07:56:50.932Z,9.26
2023-04-19T07:57:50.904Z,9.55
2023-04-19T07:59:04.271Z,9.00
2023-04-19T07:59:51.917Z,8.64
2023-04-19T08:00:50.925Z,9.06
2023-04-19T08:01:51.004Z,9.48
2023-04-19T08:02:51.300Z,9.19
2023-04-19T08:03:51.128Z,9.30
2023-04-19T08:04:51.147Z,9.08
2023-04-19T08:05:50.989Z,9.50
2023-04-19T08:06:50.817Z,9.63
2023-04-19T08:07:50.791Z,10.02
2023-04-19T08:08:50.827Z,9.95
2023-04-19T08:09:50.824Z,9.85
2023-04-19T08:10:50.808Z,9.83
2023-04-19T08:11:50.742Z,9.93
2023-04-19T08:14:04.650Z,9.89
2023-04-19T08:15:03.898Z,9.78
2023-04-19T08:16:24.386Z,9.67
2023-04-19T08:17:50.814Z,10.24
2023-04-19T08:18:50.666Z,9.52
2023-04-19T08:19:50.668Z,9.70
2023-04-19T08:20:50.660Z,9.92
2023-04-19T08:21:50.638Z,9.99
2023-04-19T08:22:50.649Z,10.46
2023-04-19T08:23:52.649Z,10.31
2023-04-19T08:24:50.609Z,9.93
2023-04-19T08:25:50.599Z,9.58
2023-04-19T08:26:50.600Z,9.67
2023-04-19T08:27:50.579Z,9.30
2023-04-19T08:28:50.563Z,9.58
2023-04-19T08:29:50.557Z,9.73
2023-04-19T08:30:50.600Z,9.88
2023-04-19T08:31:50.570Z,9.80
2023-04-19T08:32:50.619Z,9.59
2023-04-19T08:33:50.519Z,9.68
2023-04-19T08:34:50.535Z,10.01
2023-04-19T08:35:50.495Z,9.75
2023-04-19T08:36:56.180Z,9.70
2023-04-19T08:37:51.465Z,9.85
2023-04-19T08:39:01.982Z,10.04
2023-04-19T08:39:51.449Z,9.96
2023-04-19T08:40:50.430Z,9.62
2023-04-19T08:42:02.544Z,9.70
2023-04-19T08:42:51.445Z,10.01
2023-04-19T08:43:50.428Z,10.20
2023-04-19T08:45:13.071Z,10.18
2023-04-19T08:45:51.412Z,9.99
2023-04-19T08:46:50.367Z,10.17
2023-04-19T08:47:59.924Z,10.46
2023-04-19T08:48:51.409Z,11.05
2023-04-19T08:49:59.635Z,10.70
2023-04-19T08:51:04.501Z,10.73
2023-04-19T08:51:51.326Z,10.69
2023-04-19T08:52:56.051Z,10.80
2023-04-19T08:53:51.297Z,10.86
2023-04-19T08:54:50.281Z,11.27
2023-04-19T08:56:08.709Z,11.41
2023-04-19T08:56:51.275Z,11.57
2023-04-19T08:57:50.284Z,11.42
2023-04-19T08:59:50.229Z,11.30
2023-04-19T09:00:50.225Z,11.23
2023-04-19T09:01:50.262Z,11.28
2023-04-19T09:02:50.364Z,11.08
2023-04-19T09:04:01.323Z,11.12
2023-04-19T09:04:51.416Z,10.46
2023-04-19T09:05:50.418Z,10.52
2023-04-19T09:06:50.164Z,11.20
2023-04-19T09:07:50.145Z,11.09
2023-04-19T09:08:50.138Z,11.03
2023-04-19T09:10:00.022Z,11.24
2023-04-19T09:10:51.111Z,11.21
2023-04-19T09:11:50.098Z,10.70
2023-04-19T09:12:50.112Z,10.60
2023-04-19T09:13:51.260Z,10.68
2023-04-19T09:15:01.386Z,10.86
2023-04-19T09:15:51.074Z,11.13
2023-04-19T09:16:50.043Z,11.12
2023-04-19T09:17:50.069Z,11.09
2023-04-19T09:18:59.775Z,11.27
2023-04-19T09:19:51.068Z,11.78
2023-04-19T09:20:50.018Z,11.31
2023-04-19T09:21:49.986Z,11.03
2023-04-19T09:22:49.977Z,10.88
2023-04-19T09:23:49.964Z,11.60
2023-04-19T09:26:15.162Z,11.93
2023-04-19T09:26:50.946Z,12.13
2023-04-19T09:27:49.930Z,11.72
2023-04-19T09:28:49.926Z,11.44
2023-04-19T09:29:49.902Z,11.53
2023-04-19T09:31:02.298Z,11.93
2023-04-19T09:31:52.127Z,11.93
2023-04-19T09:32:50.120Z,11.21
2023-04-19T09:33:49.864Z,11.31
2023-04-19T09:34:49.836Z,11.19
2023-04-19T09:35:49.834Z,10.88
2023-04-19T09:36:54.536Z,11.13
2023-04-19T09:38:04.856Z,11.35
2023-04-19T09:38:50.838Z,11.88
2023-04-19T09:39:49.779Z,12.13
2023-04-19T09:40:49.770Z,12.51
2023-04-19T09:41:49.768Z,12.07
2023-04-19T09:45:49.717Z,11.30
2023-04-19T09:46:51.670Z,11.33
2023-04-19T09:47:49.725Z,11.35
2023-04-19T09:48:49.678Z,11.13
2023-04-19T09:49:49.953Z,10.86
2023-04-19T09:50:56.812Z,10.69
2023-04-19T09:51:50.648Z,10.72
2023-04-19T09:52:49.654Z,10.35
2023-04-19T09:53:49.628Z,10.95
2023-04-19T09:54:49.622Z,11.49
2023-04-19T09:56:00.187Z,11.51
2023-04-19T09:56:50.598Z,11.53
2023-04-19T09:57:49.602Z,11.41
2023-04-19T09:58:54.631Z,11.02
2023-04-19T09:59:50.558Z,10.84
2023-04-19T10:00:53.073Z,10.83
2023-04-19T10:01:50.614Z,10.81
2023-04-19T10:02:52.100Z,10.81
2023-04-19T10:03:49.887Z,10.94
2023-04-19T10:05:10.639Z,10.98
2023-04-19T10:05:50.503Z,11.28
2023-04-19T10:07:18.843Z,11.05
2023-04-19T10:07:50.538Z,11.02
2023-04-19T10:08:49.487Z,10.63
2023-04-19T10:09:54.203Z,10.47
2023-04-19T10:10:51.439Z,10.54
2023-04-19T10:11:51.178Z,10.46
2023-04-19T10:13:07.567Z,10.54
2023-04-19T10:13:50.413Z,10.46
2023-04-19T10:14:49.405Z,10.57
2023-04-19T10:15:54.103Z,10.60
2023-04-19T10:16:50.383Z,11.16
2023-04-19T10:17:49.386Z,11.84
2023-04-19T10:18:49.370Z,11.67
2023-04-19T10:19:49.344Z,11.11
2023-04-19T10:20:49.351Z,11.33
2023-04-19T10:21:49.335Z,11.44
2023-04-19T10:22:49.301Z,11.31
2023-04-19T10:23:49.301Z,11.38
2023-04-19T10:24:49.282Z,11.24
2023-04-19T10:25:49.279Z,11.33
2023-04-19T10:26:49.276Z,11.26
2023-04-19T10:27:49.291Z,11.08
2023-04-19T10:28:49.238Z,11.17
2023-04-19T10:29:49.233Z,11.17
2023-04-19T10:30:49.214Z,10.98
2023-04-19T10:31:49.268Z,10.95
2023-04-19T10:32:49.261Z,11.08
2023-04-19T10:33:49.196Z,10.81
2023-04-19T10:34:49.188Z,11.08
2023-04-19T10:35:49.176Z,11.17
2023-04-19T10:36:49.158Z,11.03
2023-04-19T10:37:49.155Z,11.03
2023-04-19T10:38:49.147Z,11.12
2023-04-19T10:39:49.142Z,10.91
2023-04-19T10:40:49.115Z,10.91
2023-04-19T10:41:49.109Z,11.03
2023-04-19T10:42:49.093Z,10.87
2023-04-19T10:43:49.079Z,10.73
2023-04-19T10:44:49.075Z,10.95
2023-04-19T10:45:49.093Z,11.13
2023-04-19T10:46:49.040Z,10.91
2023-04-19T10:47:49.044Z,11.12
2023-04-19T10:48:49.033Z,11.05
2023-04-19T10:49:49.013Z,10.95
2023-04-19T10:50:49.283Z,11.12
2023-04-19T10:51:48.990Z,10.93
2023-04-19T10:52:48.977Z,11.19
2023-04-19T10:53:49.024Z,10.84
2023-04-19T10:54:48.964Z,10.76
2023-04-19T10:55:48.954Z,10.78
2023-04-19T10:56:48.954Z,10.75
2023-04-19T10:57:48.930Z,10.80
2023-04-19T10:58:48.914Z,10.90
2023-04-19T10:59:48.917Z,10.88
2023-04-19T11:00:48.885Z,11.02
2023-04-19T11:01:48.914Z,10.81
2023-04-19T11:02:49.049Z,10.66
2023-04-19T11:03:49.086Z,10.81
2023-04-19T11:04:48.904Z,10.91
2023-04-19T11:05:48.837Z,10.93
2023-04-19T11:06:48.880Z,10.95
2023-04-19T11:07:48.815Z,10.84
2023-04-19T11:08:48.817Z,10.80
2023-04-19T11:09:48.793Z,10.91
2023-04-19T11:10:48.788Z,10.87
2023-04-19T11:11:48.780Z,10.87
2023-04-19T11:12:48.755Z,10.75
2023-04-19T11:13:48.775Z,10.76
2023-04-19T11:14:48.771Z,10.66
2023-04-19T11:15:48.802Z,10.43
2023-04-19T11:16:48.836Z,10.44
2023-04-19T11:17:54.867Z,10.36
2023-04-19T11:18:49.687Z,10.20
2023-04-19T11:19:48.703Z,10.47
2023-04-19T11:20:48.711Z,10.51
2023-04-19T11:21:48.658Z,10.62
2023-04-19T11:22:48.675Z,10.60
2023-04-19T11:23:48.640Z,10.46
2023-04-19T11:24:48.626Z,10.17
2023-04-19T11:25:48.636Z,10.63
2023-04-19T11:26:48.639Z,11.24
2023-04-19T11:27:48.596Z,11.74
2023-04-19T11:28:48.633Z,11.56
2023-04-19T11:29:48.590Z,11.48
2023-04-19T11:30:48.562Z,11.23
2023-04-19T11:31:48.633Z,11.17
2023-04-19T11:32:48.848Z,10.99
2023-04-19T11:33:48.534Z,10.76
2023-04-19T11:34:48.513Z,10.68
2023-04-19T11:35:48.506Z,10.73
2023-04-19T11:36:48.488Z,10.88
2023-04-19T11:37:48.489Z,10.99
2023-04-19T11:38:48.603Z,10.78
2023-04-19T11:39:48.473Z,10.93
2023-04-19T11:40:48.444Z,10.90
2023-04-19T11:41:48.445Z,11.27
2023-04-19T11:42:48.435Z,11.42
2023-04-19T11:43:48.516Z,11.84
2023-04-19T11:44:48.409Z,12.23
2023-04-19T11:45:48.395Z,12.87
2023-04-19T11:46:48.413Z,13.07
2023-04-19T11:47:48.402Z,13.44
2023-04-19T11:48:48.355Z,13.19
2023-04-19T11:49:48.347Z,12.63
2023-04-19T11:50:48.346Z,12.26
2023-04-19T11:51:48.333Z,11.81
2023-04-19T11:52:48.322Z,11.64
2023-04-19T11:53:48.303Z,11.54
2023-04-19T11:54:48.370Z,11.30
2023-04-19T11:55:48.290Z,11.08
2023-04-19T11:56:48.293Z,10.99
2023-04-19T11:57:48.272Z,11.01
2023-04-19T11:58:48.438Z,11.03
2023-04-19T11:59:48.239Z,10.81
2023-04-19T12:00:48.232Z,10.86
2023-04-19T12:01:48.234Z,10.91
2023-04-19T12:02:48.406Z,10.73
2023-04-19T12:03:48.433Z,10.51
2023-04-19T12:04:48.366Z,10.44
2023-04-19T12:05:48.244Z,10.49
2023-04-19T12:06:48.157Z,10.51
2023-04-19T12:07:48.147Z,10.88
2023-04-19T12:08:48.149Z,11.26
2023-04-19T12:09:48.161Z,11.46
2023-04-19T12:10:48.136Z,11.03
2023-04-19T12:11:48.106Z,11.21
2023-04-19T12:12:48.092Z,11.13
2023-04-19T12:13:48.083Z,11.06
2023-04-19T12:14:48.077Z,11.16
2023-04-19T12:15:48.068Z,10.98
2023-04-19T12:16:48.081Z,10.95
2023-04-19T12:17:56.995Z,10.90
2023-04-19T12:18:49.245Z,10.70
2023-04-19T12:19:48.049Z,10.80
2023-04-19T12:20:48.009Z,10.84
2023-04-19T12:21:48.015Z,10.81
2023-04-19T12:22:47.988Z,10.81
2023-04-19T12:23:47.974Z,10.80
2023-04-19T12:24:47.958Z,11.09
2023-04-19T12:25:47.983Z,11.02
2023-04-19T12:26:48.167Z,11.24
2023-04-19T12:27:47.926Z,11.82
2023-04-19T12:28:47.918Z,12.31
2023-04-19T12:29:47.920Z,12.21
2023-04-19T12:30:47.899Z,12.61
2023-04-19T12:31:47.924Z,12.71
2023-04-19T12:32:47.901Z,12.73
2023-04-19T12:33:47.863Z,12.69
2023-04-19T12:34:47.856Z,12.37
2023-04-19T12:35:47.833Z,12.73
2023-04-19T12:36:47.845Z,12.62
2023-04-19T12:37:47.818Z,12.85
2023-04-19T12:38:47.826Z,12.63
2023-04-19T12:39:47.790Z,12.33
2023-04-19T12:40:47.775Z,11.85
2023-04-19T12:41:47.780Z,11.67
2023-04-19T12:42:47.855Z,11.79
2023-04-19T12:43:47.759Z,11.75
2023-04-19T12:44:47.751Z,11.94
2023-04-19T12:45:47.750Z,11.82
2023-04-19T12:46:47.715Z,12.07
2023-04-19T12:47:47.797Z,12.38
2023-04-19T12:48:47.687Z,12.62
2023-04-19T12:49:47.681Z,12.59
2023-04-19T12:50:47.678Z,12.58
2023-04-19T12:51:47.785Z,12.49
2023-04-19T12:52:47.645Z,12.46
2023-04-19T12:53:47.650Z,12.56
2023-04-19T12:54:47.626Z,12.46
2023-04-19T12:55:47.656Z,12.36
2023-04-19T12:56:47.647Z,12.22
2023-04-19T12:57:47.608Z,11.97
2023-04-19T12:58:47.637Z,11.98
2023-04-19T12:59:47.574Z,11.87
2023-04-19T13:00:47.559Z,12.33
2023-04-19T13:01:47.645Z,12.41
2023-04-19T13:02:47.680Z,12.30
2023-04-19T13:03:47.785Z,12.44
2023-04-19T13:04:47.645Z,12.52
2023-04-19T13:05:47.517Z,12.69
2023-04-19T13:06:47.501Z,12.73
2023-04-19T13:07:47.489Z,12.56
2023-04-19T13:08:48.128Z,12.59
2023-04-19T13:09:47.478Z,12.58
2023-04-19T13:10:47.451Z,12.56
2023-04-19T13:11:47.449Z,12.21
2023-04-19T13:12:47.434Z,12.30
2023-04-19T13:13:47.436Z,12.31
2023-04-19T13:14:47.439Z,12.29
2023-04-19T13:15:47.522Z,12.30
2023-04-19T13:16:47.386Z,12.26